createdAt,value
2018-08-31T00:00:19.712Z,14.3
2018-08-31T00:01:20.487Z,13.8
2018-08-31T00:02:21.447Z,14.0
2018-08-31T00:03:22.274Z,14.3
2018-08-31T00:04:22.993Z,14.3
2018-08-31T00:05:23.965Z,14.1
2018-08-31T00:06:24.753Z,14.2
2018-08-31T00:07:25.564Z,14.3
2018-08-31T00:08:26.761Z,14.6
2018-08-31T00:09:27.517Z,14.7
2018-08-31T00:10:28.368Z,14.8
2018-08-31T00:11:29.094Z,14.8
2018-08-31T00:12:29.822Z,14.8
2018-08-31T00:13:30.597Z,14.8
2018-08-31T00:14:31.317Z,14.6
2018-08-31T00:15:32.029Z,14.6
2018-08-31T00:16:32.757Z,14.6
2018-08-31T00:17:33.486Z,14.7
2018-08-31T00:18:34.453Z,14.4
2018-08-31T00:19:35.441Z,14.6
2018-08-31T00:20:36.156Z,14.6
2018-08-31T00:21:36.889Z,14.6
2018-08-31T00:22:37.617Z,14.6
2018-08-31T00:23:38.336Z,14.8
2018-08-31T00:24:39.308Z,14.8
2018-08-31T00:25:40.026Z,14.7
2018-08-31T00:26:40.744Z,14.4
2018-08-31T00:27:41.456Z,15.2
2018-08-31T00:28:42.179Z,15.2
2018-08-31T00:29:42.895Z,15.0
2018-08-31T00:30:43.904Z,14.8
2018-08-31T00:31:44.892Z,15.1
2018-08-31T00:32:45.856Z,15.2
2018-08-31T00:33:46.565Z,14.8
2018-08-31T00:34:47.285Z,14.8
2018-08-31T00:35:48.043Z,15.2
2018-08-31T00:36:48.768Z,15.1
2018-08-31T00:37:49.488Z,14.9
2018-08-31T00:38:50.196Z,15.0
2018-08-31T00:39:50.925Z,15.6
2018-08-31T00:40:51.641Z,15.8
2018-08-31T00:41:52.413Z,15.6
2018-08-31T00:42:53.154Z,15.1
2018-08-31T00:43:54.122Z,15.5
2018-08-31T00:44:54.833Z,15.5
2018-08-31T00:45:55.551Z,15.5
2018-08-31T00:46:56.270Z,15.4
2018-08-31T00:47:56.983Z,15.4
2018-08-31T00:48:57.708Z,16.0
2018-08-31T00:49:58.419Z,15.7
2018-08-31T00:50:59.384Z,15.5
2018-08-31T00:52:00.097Z,15.5
2018-08-31T00:53:00.810Z,15.8
2018-08-31T00:54:01.526Z,15.4
2018-08-31T00:55:02.304Z,15.5
2018-08-31T00:56:03.027Z,15.7
2018-08-31T00:57:03.748Z,15.9
2018-08-31T00:58:04.483Z,16.2
2018-08-31T00:59:05.443Z,16.3
2018-08-31T01:00:06.520Z,16.2
2018-08-31T01:01:07.257Z,16.2
2018-08-31T01:02:07.977Z,15.9
2018-08-31T01:03:08.953Z,16.2
2018-08-31T01:04:09.656Z,16.2
2018-08-31T01:05:10.375Z,16.1
2018-08-31T01:06:11.117Z,16.2
2018-08-31T01:07:11.841Z,16.0
2018-08-31T01:08:13.063Z,16.1
2018-08-31T01:09:13.777Z,16.5
2018-08-31T01:10:14.840Z,16.4
2018-08-31T01:11:15.803Z,16.5
2018-08-31T01:12:16.522Z,16.5
2018-08-31T01:13:17.244Z,16.4
2018-08-31T01:14:17.953Z,16.5
2018-08-31T01:15:18.918Z,16.7
2018-08-31T01:16:19.622Z,16.9
2018-08-31T01:17:20.350Z,16.7
2018-08-31T01:18:21.061Z,16.6
2018-08-31T01:20:23.468Z,16.6
2018-08-31T01:21:24.421Z,16.6
2018-08-31T01:22:25.251Z,17.0
2018-08-31T01:23:26.003Z,17.2
2018-08-31T01:24:27.168Z,17.1
2018-08-31T01:25:28.024Z,16.9
2018-08-31T01:26:28.897Z,17.4
2018-08-31T01:27:29.777Z,17.4
2018-08-31T01:28:30.520Z,17.0
2018-08-31T01:29:31.379Z,17.1
2018-08-31T01:30:32.090Z,17.1
2018-08-31T01:31:32.816Z,17.3
2018-08-31T01:32:33.532Z,17.4
2018-08-31T01:33:34.246Z,17.1
2018-08-31T01:34:34.965Z,17.3
2018-08-31T01:35:35.694Z,17.2
2018-08-31T01:36:36.417Z,17.3
2018-08-31T01:37:37.165Z,17.4
2018-08-31T01:38:37.900Z,17.0
2018-08-31T01:39:38.632Z,17.4
2018-08-31T01:40:39.611Z,17.3
2018-08-31T01:41:40.327Z,17.3
2018-08-31T01:42:41.094Z,17.4
2018-08-31T01:43:41.809Z,17.0
2018-08-31T01:44:42.531Z,17.1
2018-08-31T01:45:43.264Z,17.1
2018-08-31T01:46:43.992Z,17.2
2018-08-31T01:47:44.775Z,17.0
2018-08-31T01:48:45.514Z,17.2
2018-08-31T01:49:46.240Z,16.7
2018-08-31T01:50:46.956Z,17.2
2018-08-31T01:51:47.672Z,16.9
2018-08-31T01:52:48.504Z,17.3
2018-08-31T01:53:49.173Z,16.9
2018-08-31T01:54:49.895Z,17.4
2018-08-31T01:55:50.602Z,17.3
2018-08-31T01:56:51.313Z,17.3
2018-08-31T01:57:52.029Z,17.6
2018-08-31T01:58:52.757Z,17.8
2018-08-31T01:59:53.482Z,17.7
2018-08-31T02:00:54.214Z,17.5
2018-08-31T02:01:54.944Z,17.6
2018-08-31T02:02:55.666Z,18.2
2018-08-31T02:03:56.378Z,18.0
2018-08-31T02:04:57.099Z,18.0
2018-08-31T02:05:57.814Z,17.5
2018-08-31T02:06:58.525Z,17.7
2018-08-31T02:07:59.488Z,18.0
2018-08-31T02:09:00.210Z,18.4
2018-08-31T02:10:00.929Z,18.4
2018-08-31T02:11:01.648Z,18.4
2018-08-31T02:12:02.609Z,18.4
2018-08-31T02:13:03.351Z,18.3
2018-08-31T02:14:04.062Z,18.5
2018-08-31T02:15:04.785Z,18.1
2018-08-31T02:16:05.505Z,18.3
2018-08-31T02:17:06.219Z,18.3
2018-08-31T02:18:06.938Z,18.2
2018-08-31T02:19:07.672Z,18.3
2018-08-31T02:20:08.391Z,18.1
2018-08-31T02:21:09.115Z,18.5
2018-08-31T02:22:09.823Z,18.8
2018-08-31T02:23:10.786Z,18.4
2018-08-31T02:24:11.521Z,18.5
2018-08-31T02:25:12.251Z,18.4
2018-08-31T02:26:12.970Z,18.5
2018-08-31T02:27:13.932Z,18.5
2018-08-31T02:28:14.653Z,18.4
2018-08-31T02:29:16.161Z,18.4
2018-08-31T02:30:17.227Z,18.7
2018-08-31T02:31:17.942Z,18.9
2018-08-31T02:32:18.814Z,19.0
2018-08-31T02:33:19.549Z,18.8
2018-08-31T02:34:20.502Z,19.2
2018-08-31T02:35:21.639Z,18.8
2018-08-31T02:36:22.434Z,18.6
2018-08-31T02:37:23.262Z,19.1
2018-08-31T02:38:24.014Z,18.7
2018-08-31T02:39:25.357Z,18.9
2018-08-31T02:40:26.029Z,18.8
2018-08-31T02:41:27.264Z,18.6
2018-08-31T02:42:28.031Z,18.8
2018-08-31T02:43:28.859Z,18.8
2018-08-31T02:44:29.568Z,19.0
2018-08-31T02:45:30.282Z,18.8
2018-08-31T02:46:30.989Z,18.7
2018-08-31T02:47:31.707Z,19.2
2018-08-31T02:48:32.432Z,19.1
2018-08-31T02:49:33.147Z,19.1
2018-08-31T02:50:33.871Z,18.8
2018-08-31T02:51:34.589Z,18.7
2018-08-31T02:52:35.309Z,19.1
2018-08-31T02:53:36.020Z,18.7
2018-08-31T02:54:37.245Z,18.7
2018-08-31T02:55:37.957Z,18.5
2018-08-31T02:56:38.670Z,18.4
2018-08-31T02:57:39.384Z,18.5
2018-08-31T02:58:40.100Z,18.0
2018-08-31T02:59:40.816Z,18.2
2018-08-31T03:00:41.529Z,18.2
2018-08-31T03:01:42.262Z,18.1
2018-08-31T03:02:42.972Z,18.4
2018-08-31T03:03:43.693Z,18.5
2018-08-31T03:04:44.768Z,18.1
2018-08-31T03:05:45.485Z,18.4
2018-08-31T03:06:46.208Z,18.2
2018-08-31T03:07:46.929Z,18.5
2018-08-31T03:08:47.661Z,18.0
2018-08-31T03:09:48.736Z,18.5
2018-08-31T03:10:49.448Z,18.5
2018-08-31T03:11:50.174Z,18.4
2018-08-31T03:12:50.894Z,18.9
2018-08-31T03:13:51.619Z,19.2
2018-08-31T03:14:52.325Z,18.9
2018-08-31T03:15:53.040Z,19.1
2018-08-31T03:16:54.021Z,18.8
2018-08-31T03:17:54.739Z,19.1
2018-08-31T03:18:55.456Z,19.1
2018-08-31T03:19:56.171Z,19.0
2018-08-31T03:20:56.891Z,19.1
2018-08-31T03:21:57.646Z,19.0
2018-08-31T03:22:58.354Z,18.9
2018-08-31T03:23:59.072Z,18.8
2018-08-31T03:24:59.802Z,18.8
2018-08-31T03:26:00.518Z,19.2
2018-08-31T03:27:01.238Z,19.2
2018-08-31T03:28:01.950Z,19.3
2018-08-31T03:29:02.670Z,18.7
2018-08-31T03:30:03.902Z,19.4
2018-08-31T03:31:04.647Z,19.6
2018-08-31T03:32:05.373Z,19.5
2018-08-31T03:33:06.081Z,19.5
2018-08-31T03:34:07.047Z,19.5
2018-08-31T03:35:07.758Z,19.7
2018-08-31T03:36:08.475Z,19.6
2018-08-31T03:37:09.197Z,19.5
2018-08-31T03:38:09.909Z,19.6
2018-08-31T03:39:10.625Z,19.6
2018-08-31T03:40:11.344Z,19.7
2018-08-31T03:41:12.059Z,20.1
2018-08-31T03:42:12.775Z,19.6
2018-08-31T03:43:13.501Z,19.7
2018-08-31T03:44:14.226Z,19.8
2018-08-31T03:45:14.945Z,20.1
2018-08-31T03:46:15.672Z,19.9
2018-08-31T03:47:16.411Z,20.2
2018-08-31T03:48:17.176Z,20.0
2018-08-31T03:49:18.300Z,20.0
2018-08-31T03:50:19.032Z,20.3
2018-08-31T03:51:20.142Z,20.2
2018-08-31T03:52:20.964Z,20.4
2018-08-31T03:53:21.784Z,20.3
2018-08-31T03:54:22.532Z,20.5
2018-08-31T03:55:23.432Z,20.3
2018-08-31T03:56:24.177Z,20.3
2018-08-31T03:57:24.916Z,20.3
2018-08-31T03:58:25.974Z,20.3
2018-08-31T03:59:26.733Z,20.4
2018-08-31T04:00:27.472Z,20.3
2018-08-31T04:01:28.616Z,20.3
2018-08-31T04:02:29.390Z,20.7
2018-08-31T04:03:30.162Z,20.4
2018-08-31T04:04:30.911Z,20.3
2018-08-31T04:05:31.947Z,20.4
2018-08-31T04:06:32.694Z,20.2
2018-08-31T04:07:33.456Z,20.3
2018-08-31T04:08:34.368Z,20.6
2018-08-31T04:09:35.124Z,20.7
2018-08-31T04:10:35.973Z,20.4
2018-08-31T04:11:36.749Z,20.7
2018-08-31T04:12:37.479Z,21.0
2018-08-31T04:13:38.379Z,20.9
2018-08-31T04:14:39.096Z,20.8
2018-08-31T04:15:39.817Z,20.8
2018-08-31T04:16:40.518Z,20.7
2018-08-31T04:17:41.248Z,20.8
2018-08-31T04:18:41.972Z,20.7
2018-08-31T04:19:42.686Z,20.6
2018-08-31T04:20:43.406Z,20.7
2018-08-31T04:21:44.131Z,20.9
2018-08-31T04:22:44.839Z,20.3
2018-08-31T04:23:45.561Z,20.3
2018-08-31T04:24:46.333Z,20.4
2018-08-31T04:25:47.307Z,20.4
2018-08-31T04:26:48.019Z,20.4
2018-08-31T04:27:48.736Z,20.9
2018-08-31T04:28:49.461Z,20.6
2018-08-31T04:29:50.184Z,21.0
2018-08-31T04:30:50.906Z,20.8
2018-08-31T04:31:51.619Z,20.6
2018-08-31T04:32:52.334Z,20.6
2018-08-31T04:33:53.051Z,21.1
2018-08-31T04:34:53.777Z,21.7
2018-08-31T04:35:54.491Z,21.3
2018-08-31T04:36:55.217Z,21.5
2018-08-31T04:37:55.936Z,21.3
2018-08-31T04:38:56.656Z,21.6
2018-08-31T04:39:57.385Z,21.5
2018-08-31T04:40:58.105Z,21.7
2018-08-31T04:41:59.180Z,21.7
2018-08-31T04:43:00.003Z,21.8
2018-08-31T04:44:00.620Z,21.9
2018-08-31T04:45:01.333Z,21.9
2018-08-31T04:46:02.058Z,21.6
2018-08-31T04:47:02.786Z,21.6
2018-08-31T04:48:03.503Z,21.8
2018-08-31T04:49:04.231Z,22.0
2018-08-31T04:50:04.948Z,21.8
2018-08-31T04:51:05.684Z,22.4
2018-08-31T04:52:06.401Z,22.3
2018-08-31T04:53:07.378Z,21.9
2018-08-31T04:54:08.092Z,22.1
2018-08-31T04:55:08.808Z,21.9
2018-08-31T04:56:09.529Z,22.2
2018-08-31T04:57:10.257Z,21.9
2018-08-31T04:58:10.966Z,21.9
2018-08-31T04:59:11.695Z,21.9
2018-08-31T05:00:12.429Z,22.1
2018-08-31T05:01:13.136Z,22.3
2018-08-31T05:02:13.873Z,22.3
2018-08-31T05:03:14.640Z,22.1
2018-08-31T05:04:15.363Z,22.4
2018-08-31T05:05:16.084Z,22.3
2018-08-31T05:06:16.801Z,22.2
2018-08-31T05:07:17.800Z,22.3
2018-08-31T05:08:18.526Z,22.0
2018-08-31T05:09:19.248Z,22.1
2018-08-31T05:10:19.971Z,21.6
2018-08-31T05:11:20.946Z,22.2
2018-08-31T05:12:21.676Z,22.3
2018-08-31T05:13:22.460Z,22.4
2018-08-31T05:14:23.186Z,22.9
2018-08-31T05:15:23.919Z,23.0
2018-08-31T05:16:24.637Z,22.9
2018-08-31T05:17:25.373Z,22.4
2018-08-31T05:18:26.142Z,22.5
2018-08-31T05:19:26.859Z,22.5
2018-08-31T05:20:27.845Z,22.7
2018-08-31T05:21:28.565Z,22.7
2018-08-31T05:22:29.296Z,22.8
2018-08-31T05:23:30.020Z,22.4
2018-08-31T05:24:30.995Z,22.1
2018-08-31T05:25:31.730Z,22.2
2018-08-31T05:26:32.459Z,22.1
2018-08-31T05:27:33.195Z,22.0
2018-08-31T05:28:33.992Z,22.3
2018-08-31T05:29:34.689Z,21.9
2018-08-31T05:30:35.451Z,21.7
2018-08-31T05:31:36.297Z,21.6
2018-08-31T05:32:37.373Z,21.5
2018-08-31T05:33:38.369Z,21.7
2018-08-31T05:34:39.086Z,21.7
2018-08-31T05:35:39.817Z,21.6
2018-08-31T05:36:40.545Z,21.5
2018-08-31T05:37:41.266Z,21.3
2018-08-31T05:38:42.266Z,21.5
2018-08-31T05:39:42.986Z,21.1
2018-08-31T05:40:43.715Z,21.4
2018-08-31T05:41:44.441Z,21.3
2018-08-31T05:42:45.576Z,20.8
2018-08-31T05:43:46.716Z,20.8
2018-08-31T05:44:47.438Z,20.6
2018-08-31T05:45:48.154Z,20.6
2018-08-31T05:46:48.900Z,20.6
2018-08-31T05:47:49.628Z,20.8
2018-08-31T05:48:50.349Z,20.2
2018-08-31T05:49:51.069Z,20.2
2018-08-31T05:50:51.808Z,19.9
2018-08-31T05:51:52.535Z,20.0
2018-08-31T05:52:53.270Z,19.9
2018-08-31T05:53:54.039Z,19.8
2018-08-31T05:54:55.169Z,19.4
2018-08-31T05:55:56.253Z,19.3
2018-08-31T05:56:56.980Z,19.1
2018-08-31T05:57:57.777Z,18.9
2018-08-31T05:58:58.535Z,18.7
2018-08-31T05:59:59.524Z,19.0
2018-08-31T06:01:00.257Z,19.0
2018-08-31T06:02:01.253Z,18.8
2018-08-31T06:03:01.985Z,18.8
2018-08-31T06:04:02.730Z,18.4
2018-08-31T06:05:03.447Z,18.5
2018-08-31T06:06:04.249Z,18.8
2018-08-31T06:07:05.229Z,18.2
2018-08-31T06:08:06.535Z,18.4
2018-08-31T06:09:07.257Z,18.6
2018-08-31T06:10:08.253Z,18.2
2018-08-31T06:11:08.978Z,18.3
2018-08-31T06:12:09.715Z,18.3
2018-08-31T06:13:10.435Z,18.3
2018-08-31T06:14:11.229Z,18.1
2018-08-31T06:15:11.943Z,17.9
2018-08-31T06:16:12.697Z,18.1
2018-08-31T06:17:13.408Z,18.0
2018-08-31T06:18:14.132Z,18.0
2018-08-31T06:19:14.863Z,17.9
2018-08-31T06:20:15.939Z,18.1
2018-08-31T06:21:16.660Z,17.9
2018-08-31T06:22:17.392Z,18.0
2018-08-31T06:23:18.112Z,17.9
2018-08-31T06:24:18.844Z,17.6
2018-08-31T06:25:19.571Z,18.0
2018-08-31T06:26:20.368Z,17.6
2018-08-31T06:27:21.092Z,17.7
2018-08-31T06:28:21.811Z,17.6
2018-08-31T06:29:22.539Z,18.0
2018-08-31T06:30:23.268Z,17.9
2018-08-31T06:31:24.291Z,18.0
2018-08-31T06:32:25.019Z,18.0
2018-08-31T06:33:25.755Z,18.0
2018-08-31T06:34:26.483Z,18.3
2018-08-31T06:35:27.209Z,18.2
2018-08-31T06:36:27.935Z,18.1
2018-08-31T06:37:28.659Z,18.2
2018-08-31T06:38:29.392Z,18.2
2018-08-31T06:39:30.126Z,18.4
2018-08-31T06:40:30.861Z,18.2
2018-08-31T06:41:31.581Z,18.1
2018-08-31T06:42:32.315Z,18.3
2018-08-31T06:43:33.049Z,18.4
2018-08-31T06:44:33.781Z,18.2
2018-08-31T06:45:34.504Z,18.3
2018-08-31T06:46:35.231Z,18.7
2018-08-31T06:47:36.013Z,18.5
2018-08-31T06:48:36.739Z,18.6
2018-08-31T06:49:37.475Z,18.6
2018-08-31T06:50:38.198Z,18.6
2018-08-31T06:51:38.923Z,18.4
2018-08-31T06:52:39.892Z,18.6
2018-08-31T06:53:40.610Z,18.3
2018-08-31T06:54:41.332Z,18.6
2018-08-31T06:55:42.068Z,18.4
2018-08-31T06:56:42.808Z,18.6
2018-08-31T06:57:43.554Z,18.4
2018-08-31T06:58:44.268Z,19.1
2018-08-31T06:59:44.997Z,18.7
2018-08-31T07:00:45.728Z,18.9
2018-08-31T07:01:46.451Z,19.8
2018-08-31T07:02:47.430Z,22.3
2018-08-31T07:03:48.250Z,23.6
2018-08-31T07:04:48.895Z,24.5
2018-08-31T07:05:49.612Z,24.7
2018-08-31T07:06:50.339Z,24.7
2018-08-31T07:07:51.060Z,24.9
2018-08-31T07:08:51.810Z,24.7
2018-08-31T07:09:52.531Z,24.5
2018-08-31T07:10:53.259Z,24.4
2018-08-31T07:11:54.054Z,24.7
2018-08-31T07:12:54.837Z,24.6
2018-08-31T07:13:55.562Z,25.2
2018-08-31T07:14:56.310Z,25.4
2018-08-31T07:15:57.038Z,26.2
2018-08-31T07:16:58.092Z,26.5
2018-08-31T07:17:58.808Z,27.9
2018-08-31T07:18:59.706Z,30.1
2018-08-31T07:20:00.673Z,30.6
2018-08-31T07:21:01.388Z,30.9
2018-08-31T07:22:02.136Z,31.8
2018-08-31T07:23:02.905Z,33.5
2018-08-31T07:24:03.642Z,35.1
2018-08-31T07:25:04.373Z,36.0
2018-08-31T07:26:05.139Z,36.9
2018-08-31T07:27:05.932Z,37.5
2018-08-31T07:28:06.663Z,38.2
2018-08-31T07:29:07.389Z,38.7
2018-08-31T07:30:08.125Z,39.0
2018-08-31T07:31:08.853Z,41.0
2018-08-31T07:32:09.630Z,43.1
2018-08-31T07:33:10.615Z,44.4
2018-08-31T07:34:11.337Z,45.6
2018-08-31T07:35:12.069Z,51.8
2018-08-31T07:36:12.837Z,53.6
2018-08-31T07:37:13.538Z,53.6
2018-08-31T07:38:14.324Z,53.5
2018-08-31T07:39:15.067Z,55.4
2018-08-31T07:40:15.789Z,55.2
2018-08-31T07:41:16.517Z,55.5
2018-08-31T07:42:17.284Z,55.3
2018-08-31T07:43:17.979Z,57.1
2018-08-31T07:44:18.708Z,60.5
2018-08-31T07:45:19.428Z,61.6
2018-08-31T07:46:20.154Z,76.0
2018-08-31T07:47:20.883Z,72.7
2018-08-31T07:48:21.617Z,69.2
2018-08-31T07:49:22.883Z,65.1
2018-08-31T07:50:23.591Z,62.8
2018-08-31T07:51:24.324Z,62.2
2018-08-31T07:52:25.053Z,60.7
2018-08-31T07:53:25.780Z,61.9
2018-08-31T07:54:26.511Z,63.1
2018-08-31T07:55:27.238Z,65.2
2018-08-31T07:56:27.963Z,65.4
2018-08-31T07:57:28.956Z,67.5
2018-08-31T07:58:29.700Z,66.9
2018-08-31T07:59:30.437Z,66.1
2018-08-31T08:00:31.157Z,65.5
2018-08-31T08:01:31.886Z,65.2
2018-08-31T08:02:32.606Z,65.9
2018-08-31T08:03:33.340Z,69.3
2018-08-31T08:04:34.056Z,70.3
2018-08-31T08:05:34.863Z,70.8
2018-08-31T08:06:35.527Z,72.8
2018-08-31T08:07:36.347Z,72.9
2018-08-31T08:08:36.993Z,71.9
2018-08-31T08:09:37.723Z,71.7
2018-08-31T08:10:38.452Z,71.8
2018-08-31T08:11:39.446Z,72.3
2018-08-31T08:12:40.176Z,69.8
2018-08-31T08:13:40.891Z,70.7
2018-08-31T08:14:41.656Z,81.7
2018-08-31T08:15:42.350Z,78.4
2018-08-31T08:16:43.070Z,76.7
2018-08-31T08:17:43.815Z,74.5
2018-08-31T08:18:44.530Z,71.5
2018-08-31T08:19:45.381Z,70.5
2018-08-31T08:20:46.099Z,69.9
2018-08-31T08:21:47.574Z,68.7
2018-08-31T08:22:48.405Z,72.8
2018-08-31T08:23:49.127Z,83.6
2018-08-31T08:24:50.111Z,77.2
2018-08-31T08:25:50.829Z,75.4
2018-08-31T08:26:52.145Z,74.2
2018-08-31T08:27:52.865Z,87.3
2018-08-31T08:28:53.594Z,89.0
2018-08-31T08:29:54.334Z,85.0
2018-08-31T08:30:55.046Z,85.0
2018-08-31T08:31:55.785Z,84.9
2018-08-31T08:32:56.505Z,81.1
2018-08-31T08:33:57.237Z,78.2
2018-08-31T08:34:57.960Z,87.4
2018-08-31T08:35:58.698Z,92.8
2018-08-31T08:36:59.425Z,86.4
2018-08-31T08:38:00.155Z,93.9
2018-08-31T08:39:01.145Z,94.3
2018-08-31T08:40:01.871Z,90.3
2018-08-31T08:41:02.600Z,91.0
2018-08-31T08:42:03.371Z,96.3
2018-08-31T08:43:04.382Z,85.7
2018-08-31T08:44:05.185Z,86.8
2018-08-31T08:45:05.904Z,83.3
2018-08-31T08:46:06.632Z,80.5
2018-08-31T08:47:07.464Z,76.6
2018-08-31T08:48:08.206Z,84.3
2018-08-31T08:49:08.921Z,84.3
2018-08-31T08:50:10.015Z,95.7
2018-08-31T08:51:10.786Z,90.0
2018-08-31T08:52:11.516Z,88.1
2018-08-31T08:53:12.273Z,88.2
2018-08-31T08:54:13.003Z,96.4
2018-08-31T08:55:13.728Z,90.3
2018-08-31T08:56:14.503Z,94.1
2018-08-31T08:57:15.246Z,91.0
2018-08-31T08:58:16.020Z,100.0
2018-08-31T08:59:17.166Z,100.0
2018-08-31T09:00:18.066Z,97.9
2018-08-31T09:01:19.133Z,93.3
2018-08-31T09:02:19.849Z,88.9
2018-08-31T09:03:20.575Z,94.7
2018-08-31T09:04:21.318Z,91.4
2018-08-31T09:05:22.048Z,98.3
2018-08-31T09:06:22.782Z,95.4
2018-08-31T09:07:23.516Z,98.3
2018-08-31T09:08:24.256Z,93.4
2018-08-31T09:09:24.995Z,93.1
2018-08-31T09:10:25.753Z,91.8
2018-08-31T09:11:26.478Z,98.5
2018-08-31T09:12:27.311Z,97.9
2018-08-31T09:13:27.943Z,96.3
2018-08-31T09:14:28.674Z,94.6
2018-08-31T09:15:29.434Z,97.2
2018-08-31T09:16:30.253Z,97.9
2018-08-31T09:17:31.029Z,100.0
2018-08-31T09:18:31.805Z,100.0
2018-08-31T09:19:32.478Z,99.2
2018-08-31T09:20:33.210Z,100.0
2018-08-31T09:21:33.937Z,100.0
2018-08-31T09:22:34.971Z,100.0
2018-08-31T09:23:35.717Z,100.0
2018-08-31T09:24:36.463Z,100.0
2018-08-31T09:25:37.175Z,100.0
2018-08-31T09:26:37.930Z,100.0
2018-08-31T09:27:38.961Z,100.0
2018-08-31T09:28:39.700Z,100.0
2018-08-31T09:29:40.430Z,100.0
2018-08-31T09:30:41.396Z,100.0
2018-08-31T09:31:42.128Z,100.0
2018-08-31T09:32:42.962Z,100.0
2018-08-31T09:33:43.643Z,100.0
2018-08-31T09:34:44.378Z,100.0
2018-08-31T09:35:45.118Z,100.0
2018-08-31T09:36:45.839Z,100.0
2018-08-31T09:37:46.571Z,100.0
2018-08-31T09:38:47.318Z,100.0
2018-08-31T09:39:48.034Z,100.0
2018-08-31T09:40:48.775Z,100.0
2018-08-31T09:41:49.501Z,100.0
2018-08-31T09:42:50.239Z,100.0
2018-08-31T09:43:50.989Z,100.0
2018-08-31T09:44:51.711Z,100.0
2018-08-31T09:45:52.455Z,100.0
2018-08-31T09:46:53.202Z,100.0
2018-08-31T09:47:53.918Z,100.0
2018-08-31T09:48:54.902Z,100.0
2018-08-31T09:49:55.640Z,100.0
2018-08-31T09:50:56.370Z,100.0
2018-08-31T09:51:57.104Z,100.0
2018-08-31T09:52:57.839Z,100.0
2018-08-31T09:53:58.628Z,100.0
2018-08-31T09:54:59.352Z,100.0
2018-08-31T09:56:00.089Z,100.0
2018-08-31T09:57:00.821Z,100.0
2018-08-31T09:58:01.555Z,100.0
2018-08-31T09:59:02.586Z,100.0
2018-08-31T10:00:03.309Z,100.0
2018-08-31T10:01:04.032Z,100.0
2018-08-31T10:02:04.768Z,100.0
2018-08-31T10:03:05.498Z,100.0
2018-08-31T10:04:06.241Z,100.0
2018-08-31T10:05:06.962Z,100.0
2018-08-31T10:06:07.707Z,100.0
2018-08-31T10:07:08.700Z,100.0
2018-08-31T10:08:09.433Z,100.0
2018-08-31T10:09:10.185Z,100.0
2018-08-31T10:10:10.919Z,100.0
2018-08-31T10:11:11.918Z,99.7
2018-08-31T10:12:12.635Z,97.5
2018-08-31T10:13:13.931Z,96.8
2018-08-31T10:14:14.912Z,95.1
2018-08-31T10:15:15.625Z,95.0
2018-08-31T10:16:16.697Z,95.4
2018-08-31T10:17:17.448Z,96.2
2018-08-31T10:18:18.170Z,97.0
2018-08-31T10:19:18.905Z,94.0
2018-08-31T10:20:19.632Z,91.5
2018-08-31T10:21:21.477Z,93.0
2018-08-31T10:22:22.416Z,93.5
2018-08-31T10:23:23.145Z,94.0
2018-08-31T10:24:23.896Z,92.2
2018-08-31T10:25:24.631Z,86.8
2018-08-31T10:26:25.366Z,88.9
2018-08-31T10:27:26.084Z,87.2
2018-08-31T10:28:26.875Z,92.0
2018-08-31T10:29:27.598Z,94.9
2018-08-31T10:30:28.598Z,93.4
2018-08-31T10:31:29.331Z,93.9
2018-08-31T10:32:30.063Z,91.0
2018-08-31T10:33:30.857Z,95.5
2018-08-31T10:34:31.589Z,96.2
2018-08-31T10:35:32.330Z,96.4
2018-08-31T10:36:33.049Z,95.9
2018-08-31T10:37:33.779Z,97.8
2018-08-31T10:38:34.563Z,100.0
2018-08-31T10:39:35.529Z,98.4
2018-08-31T10:40:36.272Z,100.0
2018-08-31T10:41:37.016Z,100.0
2018-08-31T10:42:37.730Z,99.8
2018-08-31T10:43:38.504Z,100.0
2018-08-31T10:44:39.239Z,100.0
2018-08-31T10:45:39.971Z,100.0
2018-08-31T10:46:40.725Z,100.0
2018-08-31T10:47:41.457Z,100.0
2018-08-31T10:48:42.190Z,100.0
2018-08-31T10:49:42.935Z,100.0
2018-08-31T10:50:43.689Z,100.0
2018-08-31T10:51:44.418Z,100.0
2018-08-31T10:52:45.144Z,100.0
2018-08-31T10:53:45.871Z,100.0
2018-08-31T10:54:46.998Z,100.0
2018-08-31T10:55:47.738Z,100.0
2018-08-31T10:56:48.474Z,100.0
2018-08-31T10:57:49.207Z,100.0
2018-08-31T10:58:50.262Z,100.0
2018-08-31T10:59:51.765Z,100.0
2018-08-31T11:00:52.520Z,100.0
2018-08-31T11:01:53.256Z,100.0
2018-08-31T11:02:53.990Z,100.0
2018-08-31T11:03:54.965Z,100.0
2018-08-31T11:04:55.999Z,100.0
2018-08-31T11:05:56.984Z,100.0
2018-08-31T11:06:57.972Z,100.0
2018-08-31T11:07:58.695Z,100.0
2018-08-31T11:08:59.683Z,100.0
2018-08-31T11:10:00.761Z,100.0
2018-08-31T11:11:01.500Z,100.0
2018-08-31T11:12:02.474Z,100.0
2018-08-31T11:13:03.544Z,100.0
2018-08-31T11:14:04.195Z,100.0
2018-08-31T11:15:04.956Z,100.0
2018-08-31T11:16:05.676Z,100.0
2018-08-31T11:17:06.407Z,100.0
2018-08-31T11:18:07.145Z,100.0
2018-08-31T11:19:09.676Z,100.0
2018-08-31T11:20:10.393Z,100.0
2018-08-31T11:21:11.132Z,100.0
2018-08-31T11:22:11.868Z,100.0
2018-08-31T11:23:12.592Z,100.0
2018-08-31T11:24:13.329Z,100.0
2018-08-31T11:25:14.050Z,100.0
2018-08-31T11:26:14.801Z,100.0
2018-08-31T11:27:15.879Z,99.9
2018-08-31T11:28:16.613Z,99.7
2018-08-31T11:29:17.348Z,98.7
2018-08-31T11:30:18.078Z,98.2
2018-08-31T11:31:18.806Z,100.0
2018-08-31T11:32:19.531Z,99.6
2018-08-31T11:33:20.268Z,97.4
2018-08-31T11:34:20.999Z,96.9
2018-08-31T11:35:21.749Z,98.1
2018-08-31T11:36:22.486Z,96.3
2018-08-31T11:37:23.277Z,93.9
2018-08-31T11:38:24.004Z,95.9
2018-08-31T11:39:24.759Z,95.9
2018-08-31T11:40:25.476Z,96.6
2018-08-31T11:41:26.216Z,95.2
2018-08-31T11:42:26.987Z,95.2
2018-08-31T11:43:27.797Z,93.0
2018-08-31T11:44:28.454Z,94.6
2018-08-31T11:45:29.186Z,94.5
2018-08-31T11:46:29.915Z,91.4
2018-08-31T11:47:30.646Z,92.0
2018-08-31T11:48:31.375Z,93.1
2018-08-31T11:49:32.097Z,92.9
2018-08-31T11:50:32.823Z,94.7
2018-08-31T11:51:33.559Z,94.9
2018-08-31T11:52:34.913Z,94.1
2018-08-31T11:53:35.631Z,94.2
2018-08-31T11:54:36.353Z,94.6
2018-08-31T11:55:37.082Z,93.4
2018-08-31T11:56:38.065Z,92.0
2018-08-31T11:57:38.806Z,92.3
2018-08-31T11:58:39.532Z,92.1
2018-08-31T11:59:40.260Z,92.3
2018-08-31T12:00:41.035Z,90.9
2018-08-31T12:01:41.722Z,90.1
2018-08-31T12:02:42.463Z,89.1
2018-08-31T12:03:43.434Z,92.7
2018-08-31T12:04:44.176Z,91.8
2018-08-31T12:05:44.909Z,90.3
2018-08-31T12:06:45.636Z,91.7
2018-08-31T12:07:46.412Z,89.0
2018-08-31T12:08:47.436Z,84.6
2018-08-31T12:09:48.169Z,81.7
2018-08-31T12:10:48.893Z,84.1
2018-08-31T12:11:49.632Z,81.2
2018-08-31T12:12:50.357Z,82.7
2018-08-31T12:13:51.096Z,79.3
2018-08-31T12:14:51.835Z,78.0
2018-08-31T12:15:52.583Z,77.5
2018-08-31T12:16:53.313Z,77.0
2018-08-31T12:17:54.300Z,75.9
2018-08-31T12:18:55.032Z,72.9
2018-08-31T12:19:55.771Z,72.8
2018-08-31T12:20:56.563Z,73.4
2018-08-31T12:21:57.246Z,75.2
2018-08-31T12:22:57.979Z,71.4
2018-08-31T12:23:58.959Z,70.7
2018-08-31T12:24:59.700Z,70.6
2018-08-31T12:26:00.431Z,68.3
2018-08-31T12:27:01.155Z,67.3
2018-08-31T12:28:01.895Z,69.9
2018-08-31T12:29:02.635Z,67.6
2018-08-31T12:30:03.373Z,66.7
2018-08-31T12:31:04.119Z,68.2
2018-08-31T12:32:04.851Z,64.5
2018-08-31T12:33:05.643Z,59.8
2018-08-31T12:34:06.616Z,58.0
2018-08-31T12:35:07.350Z,59.3
2018-08-31T12:36:08.101Z,57.3
2018-08-31T12:37:08.825Z,56.2
2018-08-31T12:38:09.604Z,58.1
2018-08-31T12:39:10.599Z,54.6
2018-08-31T12:40:11.768Z,54.2
2018-08-31T12:41:12.485Z,56.0
2018-08-31T12:42:13.266Z,54.3
2018-08-31T12:43:13.997Z,51.5
2018-08-31T12:44:15.075Z,52.5
2018-08-31T12:45:15.726Z,53.0
2018-08-31T12:46:16.466Z,49.8
2018-08-31T12:47:17.194Z,51.6
2018-08-31T12:48:17.941Z,51.1
2018-08-31T12:49:18.684Z,51.8
2018-08-31T12:50:20.564Z,50.4
2018-08-31T12:51:21.912Z,49.6
2018-08-31T12:52:22.795Z,48.0
2018-08-31T12:53:23.533Z,47.9
2018-08-31T12:54:24.276Z,47.1
2018-08-31T12:55:25.059Z,43.9
2018-08-31T12:56:25.803Z,46.4
2018-08-31T12:57:26.785Z,46.6
2018-08-31T12:58:27.511Z,45.6
2018-08-31T12:59:28.249Z,47.5
2018-08-31T13:00:28.982Z,45.9
2018-08-31T13:01:29.711Z,44.8
2018-08-31T13:02:30.447Z,44.7
2018-08-31T13:03:31.176Z,45.7
2018-08-31T13:04:31.913Z,44.1
2018-08-31T13:05:32.652Z,42.9
2018-08-31T13:06:33.380Z,42.6
2018-08-31T13:07:34.115Z,43.7
2018-08-31T13:08:34.846Z,44.4
2018-08-31T13:09:35.582Z,45.1
2018-08-31T13:10:36.313Z,44.0
2018-08-31T13:11:37.042Z,42.2
2018-08-31T13:12:37.782Z,44.2
2018-08-31T13:13:38.530Z,44.8
2018-08-31T13:14:39.274Z,46.0
2018-08-31T13:15:40.001Z,44.9
2018-08-31T13:16:40.749Z,46.0
2018-08-31T13:17:41.492Z,46.5
2018-08-31T13:18:42.231Z,45.3
2018-08-31T13:19:43.094Z,44.7
2018-08-31T13:20:43.775Z,44.5
2018-08-31T13:21:44.530Z,45.4
2018-08-31T13:22:45.260Z,45.5
2018-08-31T13:23:45.998Z,47.9
2018-08-31T13:24:46.742Z,48.7
2018-08-31T13:25:47.483Z,47.1
2018-08-31T13:26:48.215Z,46.7